Time;durP1;ratioP1;P1;durP2;ratioP2;P2;SDS_P1;SDS_P2;PMS_P1;PMS_P2;Temp;Humidity;BMP_temperature;BMP_pressure;BME280_temperature;BME280_humidity;BME280_pressure;Samples;Min_cycle;Max_cycle;Signal;HPM_P1;HPM_P2
2022/01/03 00:01:45;;;;;;;15.20;2.45;;;10.80;99.90;;;;;;5052894;28;20040;-61
2022/01/03 00:04:12;;;;;;;19.20;2.85;;;10.80;99.90;;;;;;5054171;28;20025;-61
2022/01/03 00:06:40;;;;;;;16.60;2.42;;;10.80;99.90;;;;;;5053761;28;20495;-61
2022/01/03 00:09:08;;;;;;;14.55;2.40;;;10.80;99.90;;;;;;5053941;28;20497;-62
2022/01/03 00:11:35;;;;;;;17.92;2.63;;;10.80;99.90;;;;;;5053987;28;20477;-61
2022/01/03 00:14:00;;;;;;;17.85;2.60;;;10.80;99.90;;;;;;5054023;28;20017;-62
2022/01/03 00:16:26;;;;;;;20.70;2.60;;;10.80;99.90;;;;;;5053858;28;20082;-61
2022/01/03 00:18:53;;;;;;;22.13;3.55;;;10.80;99.90;;;;;;5053713;28;20393;-61
2022/01/03 00:21:20;;;;;;;19.63;3.88;;;10.80;99.90;;;;;;5053837;28;20029;-61
2022/01/03 00:24:01;;;;;;;17.58;2.88;;;10.80;99.90;;;;;;5053751;28;20048;-62
2022/01/03 00:26:29;;;;;;;27.00;3.50;;;10.80;99.90;;;;;;5053864;28;20021;-61
2022/01/03 00:29:04;;;;;;;17.30;2.75;;;10.80;99.90;;;;;;5053602;28;20033;-61
2022/01/03 00:31:38;;;;;;;20.10;4.15;;;10.80;99.90;;;;;;5053431;28;20033;-61
2022/01/03 00:34:07;;;;;;;19.98;3.35;;;10.80;99.90;;;;;;5053747;28;20074;-61
2022/01/03 00:36:33;;;;;;;21.27;2.97;;;10.80;99.90;;;;;;5053409;28;20052;-61
2022/01/03 00:38:59;;;;;;;24.00;3.83;;;10.80;99.90;;;;;;5053449;28;20017;-61
2022/01/03 00:41:25;;;;;;;25.17;4.13;;;10.80;99.90;;;;;;5053576;28;20082;-62
2022/01/03 00:43:52;;;;;;;22.40;3.72;;;10.80;99.90;;;;;;5053235;28;20062;-61
2022/01/03 00:46:18;;;;;;;23.55;2.78;;;10.80;99.90;;;;;;5053737;28;20032;-61
2022/01/03 00:48:44;;;;;;;21.05;4.07;;;10.80;99.90;;;;;;5053241;28;20033;-61
2022/01/03 00:51:10;;;;;;;21.13;3.30;;;10.80;99.90;;;;;;5051997;28;20071;-61
2022/01/03 00:53:36;;;;;;;17.30;3.38;;;10.80;99.90;;;;;;5053093;28;20752;-61
2022/01/03 00:56:05;;;;;;;22.40;4.50;;;10.80;99.90;;;;;;5053163;28;20031;-61
2022/01/03 00:58:37;;;;;;;18.43;3.47;;;10.80;99.90;;;;;;5051848;28;20017;-61
2022/01/03 01:01:05;;;;;;;23.67;3.00;;;10.70;99.90;;;;;;5053169;28;20025;-61
2022/01/03 01:03:37;;;;;;;17.10;3.00;;;10.80;99.90;;;;;;5053015;28;20029;-61
2022/01/03 01:06:05;;;;;;;24.38;3.30;;;10.80;99.90;;;;;;5051757;28;20032;-61
2022/01/03 01:08:36;;;;;;;23.15;3.58;;;10.80;99.90;;;;;;5052847;28;20082;-61
2022/01/03 01:11:05;;;;;;;24.92;3.95;;;10.80;99.90;;;;;;5052551;28;20110;-61
2022/01/03 01:13:31;;;;;;;15.95;3.25;;;10.80;99.90;;;;;;5052840;28;20021;-61
2022/01/03 01:15:57;;;;;;;23.42;4.00;;;10.80;99.90;;;;;;5052697;28;20591;-61
2022/01/03 01:18:24;;;;;;;17.80;3.30;;;10.80;99.90;;;;;;5052997;28;20028;-61
2022/01/03 01:20:50;;;;;;;20.98;3.03;;;10.80;99.90;;;;;;5052346;28;20044;-62
2022/01/03 01:23:15;;;;;;;23.88;3.60;;;10.90;99.90;;;;;;5052357;28;20895;-61
2022/01/03 01:28:11;;;;;;;18.30;2.47;;;10.90;99.90;;;;;;5052608;28;20489;-61
2022/01/03 01:30:38;;;;;;;20.50;3.65;;;10.90;99.90;;;;;;5052478;28;20137;-61
2022/01/03 01:33:07;;;;;;;12.88;2.33;;;10.90;99.90;;;;;;5052704;28;20137;-61
2022/01/03 01:35:50;;;;;;;15.75;2.53;;;10.90;99.90;;;;;;5052442;28;20025;-61
2022/01/03 01:38:22;;;;;;;23.65;3.70;;;10.90;99.90;;;;;;5052326;28;20021;-61
2022/01/03 01:40:54;;;;;;;16.38;3.08;;;10.90;99.90;;;;;;5052296;28;20476;-61
2022/01/03 01:43:48;;;;;;;19.75;2.85;;;10.90;99.90;;;;;;5052405;28;20082;-62
2022/01/03 01:46:16;;;;;;;19.10;3.35;;;10.90;99.90;;;;;;5052328;28;20473;-62
2022/01/03 01:48:44;;;;;;;19.50;3.50;;;10.90;99.90;;;;;;5052202;28;20057;-61
2022/01/03 01:51:15;;;;;;;16.30;3.65;;;10.90;99.90;;;;;;5050899;28;20033;-61
2022/01/03 01:53:43;;;;;;;22.25;3.30;;;10.90;99.90;;;;;;5052053;28;20025;-61
2022/01/03 01:56:21;;;;;;;20.20;3.10;;;10.90;99.90;;;;;;5034390;28;20378;-61
2022/01/03 01:59:18;;;;;;;14.45;3.28;;;10.90;99.90;;;;;;5032179;28;20112;-61
2022/01/03 02:02:02;;;;;;;20.23;2.95;;;10.90;99.90;;;;;;5032151;28;20095;-61
2022/01/03 02:05:02;;;;;;;18.83;3.10;;;10.90;99.90;;;;;;5032130;28;20033;-61
2022/01/03 02:07:46;;;;;;;23.98;3.38;;;10.90;99.90;;;;;;5032015;28;20773;-61
2022/01/03 02:10:13;;;;;;;20.17;3.10;;;10.80;99.90;;;;;;5031694;28;20552;-61
2022/01/03 02:12:41;;;;;;;16.83;3.20;;;10.80;99.90;;;;;;5048189;28;20103;-61
2022/01/03 02:15:11;;;;;;;23.42;3.50;;;10.90;99.90;;;;;;5051880;28;20021;-62
2022/01/03 02:17:38;;;;;;;13.75;2.50;;;10.90;99.90;;;;;;5051226;28;20029;-61
2022/01/03 02:20:09;;;;;;;18.35;3.50;;;10.90;99.90;;;;;;5051863;28;20021;-61
2022/01/03 02:22:37;;;;;;;18.08;3.28;;;10.90;99.90;;;;;;5051782;28;20029;-61
2022/01/03 02:25:05;;;;;;;19.50;3.65;;;10.80;99.90;;;;;;5051641;28;20025;-61
2022/01/03 02:27:31;;;;;;;18.40;2.47;;;10.80;99.90;;;;;;5050468;28;20028;-61
2022/01/03 02:29:57;;;;;;;17.45;3.05;;;10.80;99.90;;;;;;5051193;28;20037;-61
2022/01/03 02:32:22;;;;;;;25.38;4.25;;;10.70;99.90;;;;;;5050958;28;20040;-62
2022/01/03 02:34:48;;;;;;;27.45;3.17;;;10.70;99.90;;;;;;5051708;28;20049;-61
2022/01/03 02:37:14;;;;;;;12.23;2.40;;;10.70;99.90;;;;;;5051649;28;20377;-62
2022/01/03 02:39:40;;;;;;;25.15;3.03;;;10.70;99.90;;;;;;5051496;28;20586;-61
2022/01/03 02:42:06;;;;;;;20.83;3.13;;;10.70;99.90;;;;;;5051699;28;20017;-61
2022/01/03 02:44:31;;;;;;;16.58;2.50;;;10.70;99.90;;;;;;5051587;28;20036;-61
2022/01/03 02:46:57;;;;;;;16.80;3.22;;;10.70;99.90;;;;;;5050136;28;20031;-61
2022/01/03 02:49:23;;;;;;;20.60;3.95;;;10.60;99.90;;;;;;5050270;28;20021;-61
2022/01/03 02:51:48;;;;;;;20.50;3.15;;;10.60;99.90;;;;;;5051419;28;20025;-61
2022/01/03 02:54:14;;;;;;;22.50;3.45;;;10.60;99.90;;;;;;5051573;28;20052;-61
2022/01/03 02:56:42;;;;;;;17.20;2.95;;;10.60;99.90;;;;;;5051310;28;20100;-61
2022/01/03 02:59:16;;;;;;;14.55;3.22;;;10.60;99.90;;;;;;5051363;28;20489;-61
2022/01/03 03:01:43;;;;;;;18.05;2.55;;;10.70;99.90;;;;;;5051335;28;20101;-61
2022/01/03 03:04:09;;;;;;;21.65;3.47;;;10.60;99.90;;;;;;5051407;28;20079;-61
2022/01/03 03:06:34;;;;;;;21.23;4.57;;;10.60;99.90;;;;;;5051448;28;20021;-61
2022/01/03 03:09:04;;;;;;;17.52;2.88;;;10.60;99.90;;;;;;5051145;28;20484;-61
2022/01/03 03:11:31;;;;;;;26.58;3.78;;;10.60;99.90;;;;;;5050991;28;20519;-61
2022/01/03 03:13:57;;;;;;;17.92;3.22;;;10.60;99.90;;;;;;5051194;28;20617;-61
2022/01/03 03:16:22;;;;;;;26.75;3.63;;;10.60;99.90;;;;;;5051097;28;20028;-61
2022/01/03 03:18:48;;;;;;;20.02;3.47;;;10.60;99.90;;;;;;5050877;28;20032;-61
2022/01/03 03:21:13;;;;;;;20.27;2.83;;;10.60;99.90;;;;;;5051039;28;20025;-62
2022/01/03 03:23:39;;;;;;;15.32;2.70;;;10.60;99.90;;;;;;5050717;28;20064;-62
2022/01/03 03:26:04;;;;;;;16.33;2.67;;;10.50;99.90;;;;;;5050607;28;20131;-61
2022/01/03 03:28:30;;;;;;;19.10;3.05;;;10.50;99.90;;;;;;5050945;28;20040;-61
2022/01/03 03:30:58;;;;;;;18.67;3.28;;;10.50;99.90;;;;;;5054647;28;20138;-61
2022/01/03 03:33:23;;;;;;;16.90;3.17;;;10.50;99.90;;;;;;5053593;28;20116;-61
2022/01/03 03:35:51;;;;;;;28.35;3.33;;;10.60;99.90;;;;;;5054673;28;20108;-61
2022/01/03 03:38:17;;;;;;;21.80;3.13;;;10.50;99.90;;;;;;5054769;28;20028;-61
2022/01/03 03:40:45;;;;;;;26.17;3.83;;;10.50;99.90;;;;;;5054475;28;20037;-62
2022/01/03 03:43:12;;;;;;;21.13;3.40;;;10.60;99.90;;;;;;5054502;28;20017;-62
2022/01/03 03:45:37;;;;;;;19.05;5.13;;;10.50;99.90;;;;;;5053170;28;20497;-61
2022/01/03 03:48:05;;;;;;;21.27;3.20;;;10.60;99.90;;;;;;5054483;28;20037;-61
2022/01/03 03:50:31;;;;;;;17.77;4.05;;;10.60;99.90;;;;;;5054323;28;20025;-62
2022/01/03 03:52:57;;;;;;;16.10;2.90;;;10.60;99.90;;;;;;5054430;28;20029;-61
2022/01/03 03:55:23;;;;;;;22.15;4.63;;;10.60;99.90;;;;;;5054418;28;20033;-62
2022/01/03 03:57:49;;;;;;;22.55;3.60;;;10.60;99.90;;;;;;5045214;28;20021;-61
2022/01/03 04:00:17;;;;;;;24.00;4.32;;;10.60;99.90;;;;;;5034412;28;20029;-62
2022/01/03 04:02:42;;;;;;;18.33;3.22;;;10.60;99.90;;;;;;5040352;28;20074;-61
2022/01/03 04:05:08;;;;;;;25.65;5.43;;;10.60;99.90;;;;;;5054196;28;20029;-61
2022/01/03 04:07:35;;;;;;;18.27;3.70;;;10.60;99.90;;;;;;5054046;28;20025;-61
2022/01/03 04:10:02;;;;;;;24.20;3.70;;;10.70;99.90;;;;;;5053740;28;20041;-61
2022/01/03 04:12:27;;;;;;;16.52;3.40;;;10.70;99.90;;;;;;5053858;28;20021;-61
2022/01/03 04:14:53;;;;;;;26.75;5.15;;;10.70;99.90;;;;;;5053881;28;20021;-62
2022/01/03 04:17:19;;;;;;;29.30;5.13;;;10.70;99.90;;;;;;5053978;28;20021;-61
2022/01/03 04:19:44;;;;;;;23.70;4.35;;;10.70;99.90;;;;;;5053814;28;20115;-61
2022/01/03 04:22:09;;;;;;;14.15;3.55;;;10.70;99.90;;;;;;5053976;28;20044;-61
2022/01/03 04:24:35;;;;;;;22.02;4.18;;;10.70;99.90;;;;;;5052429;28;20036;-61
2022/01/03 04:27:01;;;;;;;21.05;3.60;;;10.70;99.90;;;;;;5053671;28;20461;-61
2022/01/03 04:29:26;;;;;;;24.17;5.13;;;10.70;99.90;;;;;;5053716;28;20141;-61
2022/01/03 04:31:52;;;;;;;23.05;4.88;;;10.70;99.90;;;;;;5053572;28;20029;-61
2022/01/03 04:34:18;;;;;;;23.55;4.05;;;10.70;99.90;;;;;;5053687;28;20029;-61
2022/01/03 04:36:43;;;;;;;19.10;4.30;;;10.70;99.90;;;;;;5053633;28;20143;-62
2022/01/03 04:39:09;;;;;;;15.98;3.55;;;10.70;99.90;;;;;;5053498;28;20147;-61
2022/01/03 04:41:35;;;;;;;18.23;4.65;;;10.70;99.90;;;;;;5053164;28;20078;-61
2022/01/03 04:44:01;;;;;;;19.05;3.50;;;10.70;99.90;;;;;;5052047;28;20396;-61
2022/01/03 04:46:27;;;;;;;21.40;3.83;;;10.70;99.90;;;;;;5053494;28;20163;-61
2022/01/03 04:48:53;;;;;;;20.77;3.08;;;10.70;99.90;;;;;;5053313;28;20033;-61
2022/01/03 04:51:19;;;;;;;20.92;3.30;;;10.70;99.90;;;;;;5053270;28;20370;-61
2022/01/03 04:53:44;;;;;;;21.40;3.50;;;10.70;99.90;;;;;;5053224;28;20036;-61
2022/01/03 04:56:11;;;;;;;25.17;4.38;;;10.70;99.90;;;;;;5053154;28;20036;-61
2022/01/03 04:58:38;;;;;;;25.13;3.88;;;10.70;99.90;;;;;;5053344;28;20515;-61
2022/01/03 05:01:04;;;;;;;22.95;3.65;;;10.60;99.90;;;;;;5053116;28;20036;-61
2022/01/03 05:03:29;;;;;;;16.05;3.35;;;10.60;99.90;;;;;;5053073;28;20115;-61
2022/01/03 05:05:55;;;;;;;16.38;3.13;;;10.60;99.90;;;;;;5052947;28;20444;-61
2022/01/03 05:08:21;;;;;;;17.77;3.47;;;10.60;99.90;;;;;;5053019;28;20031;-61
2022/01/03 05:10:47;;;;;;;22.40;3.53;;;10.60;99.90;;;;;;5052585;28;20048;-61
2022/01/03 05:13:12;;;;;;;29.20;4.82;;;10.60;99.90;;;;;;5051449;28;20020;-61
2022/01/03 05:15:38;;;;;;;19.98;3.22;;;10.60;99.90;;;;;;5051503;28;20029;-62
2022/01/03 05:18:03;;;;;;;22.27;4.15;;;10.60;99.90;;;;;;5052802;28;20025;-62
2022/01/03 05:20:29;;;;;;;15.50;3.55;;;10.60;99.90;;;;;;5052698;28;20021;-61
2022/01/03 05:22:55;;;;;;;20.55;3.22;;;10.60;99.90;;;;;;5052737;28;20033;-61
2022/01/03 05:25:20;;;;;;;20.80;3.38;;;10.60;99.90;;;;;;5052581;28;20511;-61
2022/01/03 05:27:46;;;;;;;21.42;3.95;;;10.60;99.90;;;;;;5052498;28;20044;-61
2022/01/03 05:30:12;;;;;;;20.98;4.25;;;10.60;99.90;;;;;;5052516;28;20036;-61
2022/01/03 05:32:38;;;;;;;23.08;3.88;;;10.60;99.90;;;;;;5052586;28;20090;-61
2022/01/03 05:35:04;;;;;;;20.58;3.83;;;10.60;99.90;;;;;;5052520;28;20027;-62
2022/01/03 05:37:29;;;;;;;24.27;4.40;;;10.50;99.90;;;;;;5052339;28;20021;-61
2022/01/03 05:39:55;;;;;;;19.75;3.78;;;10.50;99.90;;;;;;5052293;28;20040;-61
2022/01/03 05:42:21;;;;;;;18.27;3.72;;;10.50;99.90;;;;;;5052475;28;20115;-61
2022/01/03 05:44:46;;;;;;;20.15;4.10;;;10.50;99.90;;;;;;5052401;28;20168;-61
2022/01/03 05:47:12;;;;;;;18.60;4.00;;;10.60;99.90;;;;;;5052377;28;20484;-62
2022/01/03 05:49:37;;;;;;;23.08;3.90;;;10.60;99.90;;;;;;5052093;28;20032;-61
2022/01/03 05:52:03;;;;;;;23.33;4.40;;;10.60;99.90;;;;;;5050453;28;20502;-61
2022/01/03 05:54:29;;;;;;;17.98;3.40;;;10.60;99.90;;;;;;5050891;28;20029;-61
2022/01/03 05:56:54;;;;;;;19.35;3.03;;;10.60;99.90;;;;;;5052181;28;20029;-61
2022/01/03 05:59:20;;;;;;;14.85;3.67;;;10.60;99.90;;;;;;5051519;28;20044;-61
2022/01/03 06:01:46;;;;;;;16.48;3.40;;;10.60;99.90;;;;;;5050814;28;20037;-61
2022/01/03 06:04:19;;;;;;;22.63;4.07;;;10.60;99.90;;;;;;5050543;28;20489;-61
2022/01/03 06:06:53;;;;;;;18.50;3.90;;;10.70;99.90;;;;;;5051200;28;20055;-61
2022/01/03 06:09:19;;;;;;;18.83;4.28;;;10.70;99.90;;;;;;5050113;28;20100;-61
2022/01/03 06:11:46;;;;;;;21.20;4.05;;;10.70;99.90;;;;;;5051653;28;20044;-61
2022/01/03 06:14:13;;;;;;;27.23;4.55;;;10.70;99.90;;;;;;5051707;28;20032;-61
2022/01/03 06:16:39;;;;;;;20.70;4.13;;;10.70;99.90;;;;;;5051811;28;20013;-61
2022/01/03 06:19:04;;;;;;;16.33;3.22;;;10.70;99.90;;;;;;5051855;28;20096;-61
2022/01/03 06:21:30;;;;;;;21.25;4.10;;;10.70;99.90;;;;;;5051573;28;20057;-61
2022/01/03 06:23:56;;;;;;;19.92;4.30;;;10.70;99.90;;;;;;5051751;28;20100;-61
2022/01/03 06:26:21;;;;;;;15.93;4.13;;;10.70;99.90;;;;;;5051785;28;20062;-61
2022/01/03 06:28:47;;;;;;;20.25;4.65;;;10.70;99.90;;;;;;5051828;28;20029;-61
2022/01/03 06:31:12;;;;;;;25.42;5.03;;;10.70;99.90;;;;;;5051535;28;20033;-61
2022/01/03 06:33:38;;;;;;;17.50;4.15;;;10.70;99.90;;;;;;5050431;28;20067;-61
2022/01/03 06:36:04;;;;;;;24.45;3.83;;;10.70;99.90;;;;;;5051647;28;20480;-61
2022/01/03 06:38:30;;;;;;;20.15;3.80;;;10.70;99.90;;;;;;5051646;28;20099;-61
2022/01/03 06:40:56;;;;;;;20.95;4.10;;;10.70;99.90;;;;;;5051635;28;20032;-62
2022/01/03 06:43:21;;;;;;;19.98;3.78;;;10.70;99.90;;;;;;5051631;28;20556;-61
2022/01/03 06:45:47;;;;;;;18.55;3.30;;;10.70;99.90;;;;;;5051451;28;20033;-61
2022/01/03 06:48:12;;;;;;;27.08;5.43;;;10.70;99.90;;;;;;5051621;28;20500;-61
2022/01/03 06:50:37;;;;;;;21.10;4.75;;;10.80;99.90;;;;;;5051240;28;20060;-61
2022/01/03 06:53:03;;;;;;;18.33;3.75;;;10.80;99.90;;;;;;5051641;28;20022;-61
2022/01/03 06:55:29;;;;;;;20.52;3.58;;;10.70;99.90;;;;;;5050275;28;20029;-61
2022/01/03 06:57:54;;;;;;;16.23;3.88;;;10.70;99.90;;;;;;5051530;28;20032;-61
2022/01/03 07:00:20;;;;;;;12.82;2.97;;;10.70;99.90;;;;;;5051356;28;20029;-61
2022/01/03 07:02:46;;;;;;;18.30;3.20;;;10.70;99.90;;;;;;5051769;28;20540;-61
2022/01/03 07:05:13;;;;;;;19.05;3.67;;;10.70;99.90;;;;;;5054931;28;20032;-61
2022/01/03 07:07:39;;;;;;;19.63;3.83;;;10.80;99.90;;;;;;5055202;28;20032;-61
2022/01/03 07:10:06;;;;;;;17.05;3.22;;;10.80;99.90;;;;;;5043583;28;20053;-61
2022/01/03 07:12:32;;;;;;;18.98;3.92;;;10.80;99.90;;;;;;5045144;28;20032;-61
2022/01/03 07:20:09;;;;;;;15.43;2.92;;;10.80;99.90;;;;;;5044377;28;20045;-62
2022/01/03 07:22:39;;;;;;;19.45;3.22;;;10.80;99.90;;;;;;5052122;28;20112;-62
2022/01/03 07:25:09;;;;;;;13.85;2.45;;;10.80;99.90;;;;;;5053719;28;20029;-62
2022/01/03 07:27:36;;;;;;;18.50;3.00;;;10.80;99.90;;;;;;5050138;28;20021;-61
2022/01/03 07:30:02;;;;;;;20.63;4.03;;;10.80;99.90;;;;;;5049004;28;20110;-61
2022/01/03 07:32:27;;;;;;;12.20;2.58;;;10.80;99.90;;;;;;5047884;28;20527;-61
2022/01/03 07:34:53;;;;;;;20.17;3.03;;;10.80;99.90;;;;;;5047375;28;20025;-62
2022/01/03 07:37:18;;;;;;;16.02;3.45;;;10.80;99.90;;;;;;5051220;28;20074;-62
2022/01/03 07:39:44;;;;;;;18.08;3.55;;;10.70;99.90;;;;;;5051370;28;20024;-61
2022/01/03 07:42:10;;;;;;;15.65;3.22;;;10.70;99.90;;;;;;5051680;28;20029;-61
2022/01/03 07:44:35;;;;;;;20.67;3.20;;;10.70;99.90;;;;;;5052046;28;20059;-62
2022/01/03 07:47:01;;;;;;;14.63;2.15;;;10.60;99.90;;;;;;5051475;28;20091;-62
2022/01/03 07:49:27;;;;;;;21.58;3.50;;;10.70;99.90;;;;;;5050253;28;20025;-61
2022/01/03 07:51:53;;;;;;;12.48;3.38;;;10.70;99.90;;;;;;5048043;28;20040;-61
2022/01/03 07:54:18;;;;;;;17.23;3.30;;;10.60;99.90;;;;;;5050415;28;20377;-61
2022/01/03 07:56:44;;;;;;;19.67;3.03;;;10.60;99.90;;;;;;5053161;28;20017;-61
2022/01/03 07:59:10;;;;;;;21.15;2.67;;;10.60;99.90;;;;;;5052606;28;20518;-61
2022/01/03 08:01:35;;;;;;;20.33;3.08;;;10.60;99.90;;;;;;5052859;28;20476;-62
2022/01/03 08:04:01;;;;;;;16.40;2.53;;;10.60;99.90;;;;;;5049930;28;20112;-61
2022/01/03 08:06:27;;;;;;;20.88;3.08;;;10.60;99.90;;;;;;5052224;28;20499;-61
2022/01/03 08:08:53;;;;;;;16.83;3.47;;;10.60;99.90;;;;;;5048704;28;20022;-61
2022/01/03 08:11:18;;;;;;;12.00;2.42;;;10.60;99.90;;;;;;5047493;28;20021;-61
2022/01/03 08:13:44;;;;;;;16.15;3.95;;;10.60;99.90;;;;;;5050828;28;20027;-61
2022/01/03 08:16:09;;;;;;;17.73;2.85;;;10.60;99.90;;;;;;5051564;28;20021;-61
2022/01/03 08:18:35;;;;;;;19.45;2.80;;;10.60;99.90;;;;;;5052007;28;20028;-61
2022/01/03 08:21:00;;;;;;;17.13;2.97;;;10.60;99.90;;;;;;5051981;28;20390;-61
2022/01/03 08:23:26;;;;;;;17.35;3.17;;;10.60;99.90;;;;;;5051957;28;20079;-62
2022/01/03 08:25:52;;;;;;;17.50;2.75;;;10.60;99.90;;;;;;5046900;28;20477;-61
2022/01/03 08:28:18;;;;;;;15.73;2.88;;;10.60;99.90;;;;;;5047956;28;20076;-61
2022/01/03 08:30:43;;;;;;;11.57;2.70;;;10.60;99.90;;;;;;5051237;28;20079;-61
2022/01/03 08:33:09;;;;;;;19.63;3.28;;;10.50;99.90;;;;;;5050811;28;20071;-61
2022/01/03 08:35:34;;;;;;;18.25;2.70;;;10.50;99.90;;;;;;5051727;28;20021;-61
2022/01/03 08:38:01;;;;;;;12.88;2.55;;;10.50;99.90;;;;;;5052319;28;20025;-61
2022/01/03 08:40:27;;;;;;;15.52;3.20;;;10.50;99.90;;;;;;5046270;28;20021;-62
2022/01/03 08:42:53;;;;;;;11.30;2.75;;;10.60;99.90;;;;;;5048097;28;20111;-61
2022/01/03 08:45:19;;;;;;;20.48;3.88;;;10.60;99.90;;;;;;5046706;28;20425;-61
2022/01/03 08:47:45;;;;;;;17.08;3.50;;;10.60;99.90;;;;;;5043409;28;20017;-61
2022/01/03 08:50:11;;;;;;;14.85;2.67;;;10.60;99.90;;;;;;5045625;28;20032;-61
2022/01/03 08:52:37;;;;;;;19.85;3.50;;;10.70;99.90;;;;;;5048755;28;20484;-61
2022/01/03 08:55:04;;;;;;;15.30;3.05;;;10.70;99.90;;;;;;5048147;28;20078;-61
2022/01/03 08:57:30;;;;;;;14.20;3.28;;;10.70;99.90;;;;;;5045583;28;20028;-62
2022/01/03 08:59:55;;;;;;;18.30;4.22;;;10.70;99.90;;;;;;5050724;28;20013;-61
2022/01/03 09:02:20;;;;;;;15.43;3.25;;;10.80;99.90;;;;;;5051945;28;20037;-61
2022/01/03 09:04:46;;;;;;;17.92;3.78;;;10.70;99.90;;;;;;5052393;28;20371;-61
2022/01/03 09:07:13;;;;;;;19.60;3.70;;;10.80;99.90;;;;;;5052421;28;20021;-61
2022/01/03 09:09:39;;;;;;;16.02;3.17;;;10.80;99.90;;;;;;5052143;28;20074;-61
2022/01/03 09:12:08;;;;;;;15.13;3.22;;;10.80;99.90;;;;;;5052789;28;20075;-61
2022/01/03 09:14:35;;;;;;;23.80;3.88;;;10.90;99.90;;;;;;5050750;28;20100;-61
2022/01/03 09:17:01;;;;;;;15.20;3.03;;;10.90;99.90;;;;;;5048081;28;20029;-61
2022/01/03 09:19:27;;;;;;;19.02;3.50;;;10.90;99.90;;;;;;5052347;28;20624;-61
2022/01/03 09:22:07;;;;;;;14.90;3.13;;;10.90;99.90;;;;;;5052493;28;20028;-61
2022/01/03 09:24:46;;;;;;;15.35;2.95;;;10.90;99.90;;;;;;5050683;28;20029;-61
2022/01/03 09:30:04;;;;;;;14.50;3.10;;;11.00;99.80;;;;;;5052009;28;20095;-62
2022/01/03 09:32:29;;;;;;;14.88;3.58;;;11.00;99.80;;;;;;5038012;28;20540;-61
2022/01/03 09:34:57;;;;;;;20.67;4.32;;;11.10;99.80;;;;;;5046095;28;20063;-62
2022/01/03 09:37:23;;;;;;;18.17;3.63;;;11.10;99.80;;;;;;5053334;28;20021;-61
2022/01/03 09:39:49;;;;;;;16.75;3.15;;;11.10;99.70;;;;;;5063956;28;20485;-61
2022/01/03 09:42:29;;;;;;;16.13;3.65;;;11.10;99.60;;;;;;5047752;28;20033;-61
2022/01/03 09:44:56;;;;;;;15.85;4.43;;;11.10;99.60;;;;;;5039559;28;20392;-61
2022/01/03 09:47:22;;;;;;;13.55;2.80;;;11.10;99.80;;;;;;5022664;28;21431;-61
2022/01/03 09:49:49;;;;;;;19.77;3.45;;;11.20;99.70;;;;;;5023112;28;20052;-61
2022/01/03 09:52:16;;;;;;;18.23;2.75;;;11.20;99.60;;;;;;5047238;28;20028;-61
2022/01/03 09:54:43;;;;;;;17.02;3.88;;;11.20;99.40;;;;;;5057063;28;20029;-61
2022/01/03 09:57:10;;;;;;;14.90;3.17;;;11.20;99.50;;;;;;5066922;28;20023;-61
2022/01/03 09:59:36;;;;;;;19.05;3.72;;;11.20;99.50;;;;;;5047922;28;20028;-61
2022/01/03 10:02:04;;;;;;;10.15;2.83;;;11.20;99.40;;;;;;5034622;28;20203;-62
2022/01/03 10:04:29;;;;;;;17.85;4.30;;;11.20;99.50;;;;;;5054545;28;20028;-61
2022/01/03 10:06:55;;;;;;;22.30;3.60;;;11.20;99.50;;;;;;5055427;28;20033;-61
2022/01/03 10:09:23;;;;;;;16.42;2.95;;;11.30;99.20;;;;;;5066462;28;20052;-62
2022/01/03 10:11:49;;;;;;;19.98;3.80;;;11.20;99.00;;;;;;5055686;28;20031;-62
2022/01/03 10:14:16;;;;;;;15.93;3.13;;;11.20;99.00;;;;;;5059578;28;20484;-61
2022/01/03 10:16:44;;;;;;;19.15;3.67;;;11.30;99.00;;;;;;5041694;28;20033;-61
2022/01/03 10:19:10;;;;;;;18.63;4.70;;;11.30;98.90;;;;;;5021969;28;20045;-62
2022/01/03 10:21:42;;;;;;;16.88;3.38;;;11.30;98.90;;;;;;5055905;28;20425;-61
2022/01/03 10:24:09;;;;;;;15.27;3.30;;;11.30;98.70;;;;;;5061456;28;20017;-62
2022/01/03 10:26:37;;;;;;;16.50;4.07;;;11.40;98.70;;;;;;5062149;28;20476;-61
2022/01/03 10:29:27;;;;;;;13.63;3.17;;;11.40;98.50;;;;;;5054795;28;20029;-61
2022/01/03 10:31:55;;;;;;;20.08;5.00;;;11.40;98.30;;;;;;5040800;28;20406;-61
2022/01/03 10:34:23;;;;;;;18.02;3.97;;;11.40;98.20;;;;;;5053925;28;20033;-61
2022/01/03 10:36:50;;;;;;;15.32;3.65;;;11.50;98.10;;;;;;5045901;28;20029;-61
2022/01/03 10:39:19;;;;;;;15.98;4.28;;;11.50;98.00;;;;;;5060077;28;20025;-62
2022/01/03 10:41:46;;;;;;;15.85;3.45;;;11.50;98.10;;;;;;5058774;28;20033;-61
2022/01/03 10:44:32;;;;;;;23.15;4.03;;;11.50;98.00;;;;;;5064853;28;20081;-61
2022/01/03 10:46:58;;;;;;;26.35;4.15;;;11.50;97.90;;;;;;5068750;28;20052;-62
2022/01/03 10:49:26;;;;;;;20.98;3.53;;;11.50;98.00;;;;;;5055062;28;20067;-61
2022/01/03 10:51:51;;;;;;;16.50;3.45;;;11.50;98.10;;;;;;5053498;28;20033;-61
2022/01/03 10:54:18;;;;;;;17.08;3.78;;;11.50;98.00;;;;;;5054359;28;20025;-61
2022/01/03 10:56:48;;;;;;;21.40;3.25;;;11.60;98.00;;;;;;5054409;28;20070;-61
2022/01/03 10:59:22;;;;;;;15.63;2.75;;;11.60;98.00;;;;;;5053402;28;20025;-61
2022/01/03 11:01:56;;;;;;;20.55;3.25;;;11.60;98.00;;;;;;5054810;28;20397;-62
2022/01/03 11:05:00;;;;;;;15.15;2.55;;;11.70;97.90;;;;;;5053248;28;20036;-61
2022/01/03 11:13:12;;;;;;;18.33;3.67;;;11.70;98.00;;;;;;5054827;28;20081;-62
2022/01/03 11:15:49;;;;;;;20.50;3.13;;;11.60;98.10;;;;;;5054358;28;20104;-61
2022/01/03 11:18:16;;;;;;;22.10;4.55;;;11.50;98.20;;;;;;5054566;28;20519;-61
2022/01/03 11:20:43;;;;;;;19.25;3.22;;;11.50;98.30;;;;;;5054328;28;20048;-61
2022/01/03 11:23:09;;;;;;;17.77;4.05;;;11.50;98.30;;;;;;5053217;28;20370;-61
2022/01/03 11:25:36;;;;;;;17.40;3.58;;;11.50;98.40;;;;;;5054391;28;20040;-61
2022/01/03 11:28:03;;;;;;;17.20;2.95;;;11.60;98.40;;;;;;5053006;28;20033;-61
2022/01/03 11:30:29;;;;;;;17.00;2.88;;;11.50;98.50;;;;;;5054500;28;20036;-62
2022/01/03 11:32:56;;;;;;;19.70;3.30;;;11.50;98.50;;;;;;5054302;28;20021;-61
2022/01/03 11:35:22;;;;;;;20.65;3.45;;;11.60;98.60;;;;;;5054098;28;20053;-62
2022/01/03 11:37:48;;;;;;;16.83;2.83;;;11.70;98.50;;;;;;5052654;28;20492;-61
2022/01/03 11:40:16;;;;;;;20.58;3.03;;;11.70;98.50;;;;;;5053985;28;20031;-61
2022/01/03 11:42:43;;;;;;;16.50;2.90;;;11.70;98.40;;;;;;5054099;28;20037;-61
2022/01/03 11:45:10;;;;;;;20.52;3.97;;;11.70;98.40;;;;;;5053829;28;20033;-61
2022/01/03 11:47:36;;;;;;;14.45;2.78;;;11.70;98.50;;;;;;5053885;28;20028;-62
2022/01/03 11:50:05;;;;;;;16.23;3.20;;;11.70;98.50;;;;;;5052763;28;20098;-62
2022/01/03 11:52:31;;;;;;;15.57;2.92;;;11.90;98.70;;;;;;5053586;28;20021;-61
2022/01/03 11:54:57;;;;;;;18.90;3.13;;;12.00;98.40;;;;;;5053917;28;20013;-62
2022/01/03 11:57:44;;;;;;;20.52;2.90;;;12.30;98.10;;;;;;5053737;28;20072;-62
2022/01/03 12:05:46;;;;;;;18.90;2.83;;;12.20;97.50;;;;;;5052937;28;20099;-61
2022/01/03 12:08:29;;;;;;;15.80;2.92;;;12.10;97.70;;;;;;5048500;28;20461;-62
2022/01/03 12:10:59;;;;;;;12.50;2.65;;;12.00;97.80;;;;;;5048923;28;20033;-61
2022/01/03 12:13:46;;;;;;;19.88;3.33;;;12.00;97.90;;;;;;5048059;28;20013;-61
2022/01/03 12:16:12;;;;;;;22.05;4.43;;;11.90;97.90;;;;;;5047945;28;20469;-61
2022/01/03 12:18:38;;;;;;;13.13;2.63;;;11.90;97.90;;;;;;5052288;28;20024;-61
2022/01/03 12:21:05;;;;;;;14.50;2.47;;;11.90;97.90;;;;;;5051785;28;20033;-61
2022/01/03 12:23:43;;;;;;;18.85;2.55;;;11.90;98.00;;;;;;5050482;28;20029;-61
2022/01/03 12:26:23;;;;;;;13.85;2.40;;;12.00;97.90;;;;;;5034697;28;20025;-62
2022/01/03 12:29:06;;;;;;;14.93;2.55;;;12.00;97.80;;;;;;5051622;28;20396;-62
2022/01/03 12:32:06;;;;;;;11.98;2.78;;;11.90;97.70;;;;;;5033439;28;20397;-61
2022/01/03 12:34:32;;;;;;;15.40;2.65;;;11.90;97.60;;;;;;5048615;28;20559;-61
2022/01/03 12:37:18;;;;;;;14.90;2.35;;;11.90;97.70;;;;;;5049379;28;20025;-61
2022/01/03 12:40:05;;;;;;;11.88;2.42;;;11.90;97.40;;;;;;5053044;28;20060;-61
2022/01/03 12:42:46;;;;;;;12.05;2.60;;;11.90;97.60;;;;;;5052877;28;20056;-61
2022/01/03 12:45:12;;;;;;;12.25;3.20;;;11.90;97.50;;;;;;5052164;28;20103;-61
2022/01/03 12:47:39;;;;;;;15.23;2.47;;;11.90;97.40;;;;;;5052609;28;20079;-61
2022/01/03 12:50:22;;;;;;;13.85;2.55;;;11.90;97.40;;;;;;5052196;28;20041;-61
2022/01/03 12:52:48;;;;;;;12.52;2.25;;;12.00;97.40;;;;;;5051236;28;20021;-61
2022/01/03 12:55:39;;;;;;;14.98;2.95;;;11.90;97.40;;;;;;5052630;28;20021;-61
2022/01/03 12:58:16;;;;;;;13.90;2.63;;;12.00;97.10;;;;;;5052717;28;20021;-61
2022/01/03 13:01:12;;;;;;;15.52;3.95;;;11.90;97.10;;;;;;5052402;28;20029;-61
2022/01/03 13:03:50;;;;;;;11.95;2.55;;;11.90;97.10;;;;;;5052704;28;20037;-61